Time;durP1;ratioP1;P1;durP2;ratioP2;P2;SDS_P1;SDS_P2;PMS_P1;PMS_P2;Temp;Humidity;BMP_temperature;BMP_pressure;BME280_temperature;BME280_humidity;BME280_pressure;Samples;Min_cycle;Max_cycle;Signal;HPM_P1;HPM_P2
2023/12/04 00:01:26;;;;;;;35.22;13.57;;;;;;;-0.87;100.00;101285.41;5114504;28;20055;-74
2023/12/04 00:03:51;;;;;;;26.95;13.00;;;;;;;-0.89;100.00;101277.63;5113737;28;20039;-73
2023/12/04 00:06:16;;;;;;;33.70;13.43;;;;;;;-0.88;100.00;101275.88;5114008;28;20047;-74
2023/12/04 00:08:42;;;;;;;28.35;12.73;;;;;;;-0.87;100.00;101274.13;5114189;28;20028;-75
2023/12/04 00:11:07;;;;;;;30.05;13.07;;;;;;;-0.87;100.00;101272.34;5078866;28;20420;-75
2023/12/04 00:13:33;;;;;;;28.42;13.80;;;;;;;-0.88;100.00;101262.81;5114185;28;20088;-74
2023/12/04 00:15:59;;;;;;;27.63;13.05;;;;;;;-0.88;100.00;101262.81;5113643;28;20091;-73
2023/12/04 00:18:24;;;;;;;33.53;13.48;;;;;;;-0.89;100.00;101255.88;5114256;28;20059;-74
2023/12/04 00:20:50;;;;;;;28.63;13.07;;;;;;;-0.89;100.00;101255.88;5114174;28;20132;-73
2023/12/04 00:23:15;;;;;;;30.95;13.07;;;;;;;-0.89;100.00;101248.88;5114013;28;20039;-74
2023/12/04 00:25:41;;;;;;;30.10;13.02;;;;;;;-0.88;100.00;101247.16;5113297;28;20513;-74
2023/12/04 00:28:06;;;;;;;32.17;13.13;;;;;;;-0.86;100.00;101244.47;5113026;28;20023;-74
2023/12/04 00:30:32;;;;;;;28.00;12.52;;;;;;;-0.89;100.00;101251.50;5113544;28;20054;-74
2023/12/04 00:32:57;;;;;;;28.55;13.38;;;;;;;-0.87;100.00;101245.38;5113855;28;20036;-74
2023/12/04 00:35:22;;;;;;;28.42;12.07;;;;;;;-0.86;100.00;101247.09;5113672;28;20403;-74
2023/12/04 00:37:48;;;;;;;33.50;14.07;;;;;;;-0.90;100.00;101234.13;5095082;28;20036;-74
2023/12/04 00:40:13;;;;;;;29.10;12.70;;;;;;;-0.91;100.00;101235.03;5113577;28;20051;-74
2023/12/04 00:42:38;;;;;;;31.15;14.30;;;;;;;-0.93;100.00;101223.78;5094987;28;20059;-74
2023/12/04 00:45:04;;;;;;;29.88;13.10;;;;;;;-0.93;100.00;101231.59;5113664;28;20091;-74
2023/12/04 00:47:30;;;;;;;32.03;13.80;;;;;;;-0.95;100.00;101229.97;5113688;28;20347;-74
2023/12/04 00:49:55;;;;;;;32.70;13.85;;;;;;;-0.96;100.00;101234.34;5113696;28;20482;-74
2023/12/04 00:52:20;;;;;;;30.88;14.05;;;;;;;-0.96;100.00;101234.34;5113104;28;20039;-74
2023/12/04 00:54:46;;;;;;;26.20;13.02;;;;;;;-0.97;100.00;101230.03;5113367;28;20103;-73
2023/12/04 00:57:11;;;;;;;29.50;13.57;;;;;;;-0.97;100.00;101227.44;5113435;28;20532;-73
2023/12/04 00:59:36;;;;;;;30.58;13.60;;;;;;;-0.96;100.00;101225.66;5113057;28;20029;-74
2023/12/04 01:02:02;;;;;;;31.75;13.20;;;;;;;-0.96;100.00;101205.59;5113284;28;20043;-73
2023/12/04 01:04:27;;;;;;;32.05;12.68;;;;;;;-0.97;100.00;101201.31;5113308;28;20370;-75
2023/12/04 01:06:53;;;;;;;27.77;13.20;;;;;;;-0.97;100.00;101203.91;5113387;28;20447;-74
2023/12/04 01:09:23;;;;;;;27.38;12.27;;;;;;;-1.00;100.00;101190.97;5113359;28;20135;-74
2023/12/04 01:11:49;;;;;;;26.85;13.27;;;;;;;-1.01;100.00;101199.69;5095683;28;20045;-74
2023/12/04 01:14:15;;;;;;;24.83;12.80;;;;;;;-1.01;100.00;101188.41;5094584;28;20110;-75
2023/12/04 01:16:40;;;;;;;26.10;12.20;;;;;;;-1.02;100.00;101181.47;5113228;28;20048;-75
2023/12/04 01:19:05;;;;;;;29.60;13.00;;;;;;;-1.03;100.00;101183.25;5112935;28;20027;-75
2023/12/04 01:21:31;;;;;;;28.77;12.85;;;;;;;-1.05;100.00;101173.75;5113304;28;20027;-75
2023/12/04 01:23:56;;;;;;;25.98;12.45;;;;;;;-1.02;100.00;101171.03;5112727;28;20024;-75
2023/12/04 01:26:21;;;;;;;30.60;13.23;;;;;;;-1.01;100.00;101172.75;5094076;28;20115;-74
2023/12/04 01:28:48;;;;;;;32.88;12.93;;;;;;;-1.01;100.00;101172.75;5112752;28;20028;-73
2023/12/04 01:31:13;;;;;;;25.25;12.45;;;;;;;-1.02;100.00;101184.09;5112573;28;20069;-74
2023/12/04 01:33:38;;;;;;;28.48;11.75;;;;;;;-1.02;100.00;101178.88;5112772;28;20059;-74
2023/12/04 01:36:04;;;;;;;27.13;12.38;;;;;;;-1.01;100.00;101183.19;5112579;28;20120;-74
2023/12/04 01:38:30;;;;;;;29.08;12.77;;;;;;;-1.04;100.00;101173.69;5094092;28;20023;-74
2023/12/04 01:40:56;;;;;;;26.58;12.00;;;;;;;-1.03;100.00;101170.19;5112742;28;20031;-74
2023/12/04 01:43:22;;;;;;;27.98;12.25;;;;;;;-1.04;100.00;101163.25;5112334;28;20439;-74
2023/12/04 01:45:49;;;;;;;28.77;12.93;;;;;;;-1.05;100.00;101164.16;5094407;28;20023;-74
2023/12/04 01:48:16;;;;;;;32.22;11.95;;;;;;;-1.05;100.00;101143.25;5112394;28;20092;-74
2023/12/04 01:50:42;;;;;;;25.25;12.27;;;;;;;-1.05;100.00;101158.09;5112360;28;20031;-74
2023/12/04 01:53:07;;;;;;;25.50;11.57;;;;;;;-1.05;100.00;101151.09;5112369;28;20473;-74
2023/12/04 01:55:33;;;;;;;26.67;11.98;;;;;;;-1.03;100.00;101153.63;5112200;28;20034;-73
2023/12/04 01:58:02;;;;;;;29.58;13.48;;;;;;;-1.03;100.00;101151.91;5093631;28;20110;-73
2023/12/04 02:00:30;;;;;;;26.35;12.80;;;;;;;-1.02;100.00;101144.91;5111980;28;20020;-74
2023/12/04 02:02:56;;;;;;;23.60;11.52;;;;;;;-1.02;100.00;101144.91;5094022;28;20131;-74
2023/12/04 02:05:22;;;;;;;28.02;12.02;;;;;;;-1.02;100.00;101137.06;5111991;28;20458;-74
2023/12/04 02:07:48;;;;;;;26.88;12.32;;;;;;;-1.02;100.00;101143.13;5111351;28;20106;-74
2023/12/04 02:10:13;;;;;;;25.70;12.18;;;;;;;-1.04;100.00;101139.75;5111799;28;20106;-74
2023/12/04 02:12:39;;;;;;;27.92;12.57;;;;;;;-1.04;100.00;101134.50;5111725;28;20424;-74
2023/12/04 02:15:05;;;;;;;31.08;12.57;;;;;;;-1.05;100.00;101130.19;5111835;28;20048;-74
2023/12/04 02:17:32;;;;;;;24.92;10.93;;;;;;;-1.06;100.00;101125.88;5111650;28;20077;-75
2023/12/04 02:19:57;;;;;;;26.33;11.48;;;;;;;-1.06;100.00;101118.03;5112000;28;20103;-74
2023/12/04 02:22:23;;;;;;;28.50;11.18;;;;;;;-1.05;100.00;101118.91;5112151;28;20048;-73
2023/12/04 02:24:48;;;;;;;30.83;12.20;;;;;;;-1.02;100.00;101122.25;5111729;28;20469;-75
2023/12/04 02:27:33;;;;;;;23.65;11.50;;;;;;;-0.99;100.00;101118.66;5111724;28;20031;-75
2023/12/04 02:30:01;;;;;;;25.10;11.02;;;;;;;-0.98;100.00;101116.00;5111740;28;20020;-75
2023/12/04 02:32:31;;;;;;;22.98;11.30;;;;;;;-0.95;100.00;101101.97;5112063;28;20050;-75
2023/12/04 02:34:59;;;;;;;32.50;11.50;;;;;;;-0.96;100.00;101101.09;5111429;28;20375;-75
2023/12/04 02:37:26;;;;;;;24.67;11.02;;;;;;;-0.95;100.00;101100.19;5111489;28;20031;-76
2023/12/04 02:39:55;;;;;;;22.95;10.77;;;;;;;-0.96;100.00;101095.88;5112182;28;20096;-75
2023/12/04 02:42:22;;;;;;;24.33;11.32;;;;;;;-0.97;100.00;101091.59;5111854;28;20470;-74
2023/12/04 02:44:47;;;;;;;21.67;10.30;;;;;;;-0.97;100.00;101088.09;5111778;28;20034;-74
2023/12/04 02:47:13;;;;;;;22.40;11.13;;;;;;;-0.97;100.00;101083.75;5111621;28;20019;-75
2023/12/04 02:49:38;;;;;;;22.08;10.70;;;;;;;-0.97;100.00;101075.03;5111908;28;20378;-74
2023/12/04 02:52:04;;;;;;;21.15;10.02;;;;;;;-0.97;100.00;101080.25;5116234;28;20367;-74
2023/12/04 02:54:29;;;;;;;23.13;10.18;;;;;;;-0.97;100.00;101077.66;5097696;28;20027;-75
2023/12/04 02:56:55;;;;;;;23.15;10.00;;;;;;;-1.00;100.00;101075.16;5115925;28;20489;-75
2023/12/04 02:59:20;;;;;;;22.15;10.60;;;;;;;-1.00;100.00;101073.41;5116309;28;20023;-75
2023/12/04 03:01:45;;;;;;;23.50;10.13;;;;;;;-1.02;100.00;101062.16;5115984;28;20512;-75
2023/12/04 03:04:11;;;;;;;20.35;10.38;;;;;;;-1.02;100.00;101061.31;5115417;28;20035;-75
2023/12/04 03:06:36;;;;;;;18.58;9.40;;;;;;;-1.04;100.00;101050.94;5115588;28;20328;-75
2023/12/04 03:09:03;;;;;;;20.73;9.50;;;;;;;-1.03;100.00;101051.78;5115617;28;20030;-75
2023/12/04 03:11:29;;;;;;;23.08;10.13;;;;;;;-1.04;100.00;101045.72;5097196;28;20375;-75
2023/12/04 03:13:54;;;;;;;20.98;9.85;;;;;;;-1.07;100.00;101036.22;5115337;28;20028;-75
2023/12/04 03:16:20;;;;;;;17.75;9.32;;;;;;;-1.08;100.00;101029.28;5115764;28;20043;-75
2023/12/04 03:18:45;;;;;;;18.88;9.57;;;;;;;-1.07;100.00;101033.63;5115123;28;20034;-75
2023/12/04 03:21:11;;;;;;;18.25;9.32;;;;;;;-1.08;100.00;101016.22;5114834;28;20038;-75
2023/12/04 03:23:36;;;;;;;19.35;10.23;;;;;;;-1.09;100.00;101017.16;5115443;28;20024;-75
2023/12/04 03:26:02;;;;;;;19.35;8.75;;;;;;;-1.07;100.00;101012.72;5096621;28;20070;-75
2023/12/04 03:28:28;;;;;;;17.30;9.30;;;;;;;-1.06;100.00;101008.34;5115117;28;20428;-75
2023/12/04 03:30:53;;;;;;;21.13;9.50;;;;;;;-1.06;100.00;100997.88;5114647;28;20039;-76
2023/12/04 03:33:18;;;;;;;18.73;9.23;;;;;;;-1.03;100.00;101002.16;5115187;28;20027;-75
2023/12/04 03:35:44;;;;;;;19.48;8.88;;;;;;;-1.02;100.00;100996.88;5114895;28;20031;-76
2023/12/04 03:38:09;;;;;;;17.02;8.55;;;;;;;-1.04;100.00;100997.84;5114952;28;20024;-75
2023/12/04 03:40:34;;;;;;;16.40;8.85;;;;;;;-1.07;100.00;100989.22;5115063;28;20431;-75
2023/12/04 03:43:00;;;;;;;15.77;8.32;;;;;;;-1.09;100.00;100983.22;5114452;28;20092;-76
2023/12/04 03:45:25;;;;;;;14.85;7.95;;;;;;;-1.07;100.00;100985.75;5114891;28;20036;-75
2023/12/04 03:47:51;;;;;;;20.98;8.75;;;;;;;-1.09;100.00;100979.72;5114625;28;20039;-75
2023/12/04 03:50:16;;;;;;;17.63;8.43;;;;;;;-1.07;100.00;100970.94;5114642;28;20038;-75
2023/12/04 03:52:41;;;;;;;16.80;8.18;;;;;;;-1.08;100.00;100974.44;5114716;28;20057;-75
2023/12/04 03:55:08;;;;;;;14.75;8.25;;;;;;;-1.09;100.00;100964.94;5115056;28;20032;-75
2023/12/04 03:57:33;;;;;;;15.18;7.68;;;;;;;-1.09;100.00;100971.88;5114600;28;20102;-76
2023/12/04 03:59:59;;;;;;;15.70;8.32;;;;;;;-1.05;100.00;100970.03;5114596;28;20106;-75
2023/12/04 04:02:24;;;;;;;14.63;7.72;;;;;;;-1.05;100.00;100959.56;5095914;28;20078;-75
2023/12/04 04:04:50;;;;;;;13.82;7.43;;;;;;;-1.05;100.00;100956.97;5096082;28;20027;-75
2023/12/04 04:07:16;;;;;;;16.10;8.20;;;;;;;-1.05;100.00;100952.59;5096357;28;20031;-75
2023/12/04 04:09:41;;;;;;;11.27;6.82;;;;;;;-1.09;100.00;100951.00;5114592;28;20038;-75
2023/12/04 04:12:07;;;;;;;13.23;7.38;;;;;;;-1.10;100.00;100944.94;5096032;28;20032;-75
2023/12/04 04:14:32;;;;;;;14.52;7.85;;;;;;;-1.10;100.00;100944.09;5114347;28;20039;-76
2023/12/04 04:16:58;;;;;;;14.20;7.28;;;;;;;-1.07;100.00;100939.59;5114655;28;20148;-75
2023/12/04 04:19:23;;;;;;;21.65;8.38;;;;;;;-1.06;100.00;100937.81;5113832;28;20026;-76
2023/12/04 04:21:48;;;;;;;15.63;7.22;;;;;;;-1.05;100.00;100936.06;5114071;28;20416;-76
2023/12/04 04:24:14;;;;;;;17.02;7.93;;;;;;;-1.03;100.00;100937.72;5113738;28;20031;-75
2023/12/04 04:26:39;;;;;;;13.43;6.85;;;;;;;-1.02;100.00;100926.34;5114017;28;20075;-75
2023/12/04 04:29:05;;;;;;;13.48;6.90;;;;;;;-1.00;100.00;100931.50;5114002;28;20023;-75
2023/12/04 04:31:30;;;;;;;13.93;7.30;;;;;;;-1.01;100.00;100930.66;5113820;28;20024;-75
2023/12/04 04:33:55;;;;;;;13.88;7.13;;;;;;;-0.99;100.00;100931.44;5113697;28;20043;-75
2023/12/04 04:36:21;;;;;;;13.95;7.15;;;;;;;-0.98;100.00;100925.31;5113992;28;20483;-75
2023/12/04 04:38:46;;;;;;;15.40;7.13;;;;;;;-0.99;100.00;100928.81;5113995;28;20095;-74
2023/12/04 04:41:15;;;;;;;12.88;6.47;;;;;;;-0.94;100.00;100928.63;5114223;28;20098;-76
2023/12/04 04:43:41;;;;;;;12.63;7.18;;;;;;;-0.92;100.00;100924.22;5113721;28;20020;-75
2023/12/04 04:46:07;;;;;;;12.32;6.72;;;;;;;-0.89;100.00;100921.47;5113464;28;20034;-74
2023/12/04 04:48:32;;;;;;;12.55;7.10;;;;;;;-0.89;100.00;100922.31;5095304;28;20371;-74
2023/12/04 04:50:57;;;;;;;12.35;6.65;;;;;;;-0.88;100.00;100915.34;5113300;28;20024;-74
2023/12/04 04:53:23;;;;;;;12.75;6.75;;;;;;;-0.87;100.00;100908.34;5113823;28;20103;-74
2023/12/04 04:55:48;;;;;;;11.45;6.15;;;;;;;-0.87;100.00;100908.34;5095555;28;20111;-75
2023/12/04 04:58:13;;;;;;;15.55;7.65;;;;;;;-0.84;100.00;100903.00;5113394;28;20034;-75
2023/12/04 05:00:39;;;;;;;12.82;5.82;;;;;;;-0.83;100.00;100900.31;5113218;28;20296;-75
2023/12/04 05:03:04;;;;;;;12.20;6.78;;;;;;;-0.84;100.00;100889.94;5113403;28;20467;-75
2023/12/04 05:05:29;;;;;;;11.45;6.72;;;;;;;-0.85;100.00;100886.47;5113424;28;20031;-75
2023/12/04 05:07:55;;;;;;;12.02;7.18;;;;;;;-0.84;100.00;100879.47;5095080;28;20035;-74
2023/12/04 05:10:20;;;;;;;12.60;6.60;;;;;;;-0.81;100.00;100882.78;5094862;28;20032;-76
2023/12/04 05:12:46;;;;;;;11.25;6.28;;;;;;;-0.79;100.00;100873.16;5112677;28;20081;-75
2023/12/04 05:15:11;;;;;;;11.68;6.47;;;;;;;-0.78;100.00;100881.81;5112903;28;20058;-75
2023/12/04 05:17:36;;;;;;;12.70;6.88;;;;;;;-0.79;100.00;100874.88;5113613;28;20394;-75
2023/12/04 05:20:02;;;;;;;12.88;6.53;;;;;;;-0.76;100.00;100874.75;5113461;28;20036;-73
2023/12/04 05:22:27;;;;;;;13.00;6.70;;;;;;;-0.78;100.00;100869.59;5113003;28;20367;-74
2023/12/04 05:24:53;;;;;;;13.00;7.05;;;;;;;-0.78;100.00;100858.31;5095080;28;20031;-75
2023/12/04 05:27:18;;;;;;;12.02;6.05;;;;;;;-0.77;100.00;100860.00;5112609;28;20032;-75
2023/12/04 05:29:43;;;;;;;10.45;5.82;;;;;;;-0.75;100.00;100859.03;5113248;28;20400;-74
2023/12/04 05:32:09;;;;;;;11.45;6.57;;;;;;;-0.74;100.00;100858.09;5113047;28;20055;-75
2023/12/04 05:34:34;;;;;;;11.82;6.07;;;;;;;-0.73;100.00;100854.59;5112841;28;20024;-75
2023/12/04 05:36:59;;;;;;;13.60;6.45;;;;;;;-0.73;100.00;100856.38;5112393;28;20027;-75
2023/12/04 05:39:25;;;;;;;14.65;6.47;;;;;;;-0.74;100.00;100855.50;5112378;28;20512;-76
2023/12/04 05:41:51;;;;;;;11.65;6.10;;;;;;;-0.75;100.00;100850.34;5094143;28;20035;-74
2023/12/04 05:44:16;;;;;;;12.27;6.70;;;;;;;-0.76;100.00;100844.28;5112514;28;20359;-74
2023/12/04 05:46:41;;;;;;;10.93;6.03;;;;;;;-0.76;100.00;100852.09;5112470;28;20123;-73
2023/12/04 05:49:07;;;;;;;15.85;7.28;;;;;;;-0.75;100.00;100868.63;5077092;28;20023;-73
2023/12/04 05:51:32;;;;;;;11.43;6.22;;;;;;;-0.73;100.00;100869.44;5094264;28;20455;-74
2023/12/04 05:53:58;;;;;;;11.95;6.47;;;;;;;-0.72;100.00;100858.91;5112204;28;20024;-74
2023/12/04 05:56:23;;;;;;;13.20;7.20;;;;;;;-0.68;100.00;100858.78;5111835;28;20034;-74
2023/12/04 05:58:48;;;;;;;13.63;7.22;;;;;;;-0.64;100.00;100855.97;5111934;28;20106;-73
2023/12/04 06:01:15;;;;;;;11.98;7.07;;;;;;;-0.59;100.00;100853.13;5093964;28;20370;-74
2023/12/04 06:03:40;;;;;;;12.18;6.70;;;;;;;-0.56;100.00;100848.63;5112185;28;20024;-74
2023/12/04 06:06:06;;;;;;;15.98;7.65;;;;;;;-0.54;100.00;100849.41;5112114;28;20042;-74
2023/12/04 06:08:31;;;;;;;25.10;10.13;;;;;;;-0.54;100.00;100846.81;5093261;28;20039;-74
2023/12/04 06:10:57;;;;;;;15.13;8.18;;;;;;;-0.56;100.00;100845.16;5111842;28;20107;-74
2023/12/04 06:13:22;;;;;;;15.85;7.05;;;;;;;-0.57;100.00;100846.06;5112000;28;20047;-74
2023/12/04 06:15:47;;;;;;;14.32;7.47;;;;;;;-0.57;100.00;100846.94;5111959;28;20039;-74
2023/12/04 06:18:13;;;;;;;12.55;7.22;;;;;;;-0.59;100.00;100822.63;5111788;28;20051;-74
2023/12/04 06:20:38;;;;;;;13.30;7.68;;;;;;;-0.63;100.00;100822.81;5093561;28;20051;-74
2023/12/04 06:23:04;;;;;;;11.65;6.97;;;;;;;-0.65;100.00;100827.28;5111935;28;20066;-75
2023/12/04 06:25:29;;;;;;;11.82;7.32;;;;;;;-0.69;100.00;100828.31;5111041;28;20024;-74
2023/12/04 06:27:55;;;;;;;13.30;7.22;;;;;;;-0.74;100.00;100825.91;5111387;28;20028;-74
2023/12/04 06:30:21;;;;;;;16.90;7.35;;;;;;;-0.77;100.00;100816.44;5093091;28;20347;-74
2023/12/04 06:32:47;;;;;;;13.98;7.68;;;;;;;-0.80;100.00;100818.34;5111888;28;20035;-73
2023/12/04 06:35:13;;;;;;;14.43;7.60;;;;;;;-0.83;100.00;100819.31;5111634;28;20057;-73
2023/12/04 06:37:41;;;;;;;22.45;10.85;;;;;;;-0.87;100.00;100811.69;5111721;28;20027;-74
2023/12/04 06:40:08;;;;;;;18.95;9.80;;;;;;;-0.91;100.00;100806.59;5111316;28;20050;-74
2023/12/04 06:42:35;;;;;;;16.13;8.13;;;;;;;-0.90;100.00;100810.03;5111846;28;20166;-74
2023/12/04 06:45:01;;;;;;;15.65;8.15;;;;;;;-0.91;100.00;100800.50;5093599;28;20051;-74
2023/12/04 06:47:30;;;;;;;15.60;7.90;;;;;;;-0.90;100.00;100795.25;5093287;28;20392;-74
2023/12/04 06:49:56;;;;;;;16.30;8.50;;;;;;;-0.90;100.00;100799.59;5112125;28;20059;-74
2023/12/04 06:52:21;;;;;;;14.07;7.93;;;;;;;-0.89;100.00;100804.75;5111660;28;20062;-75
2023/12/04 06:54:46;;;;;;;15.75;7.97;;;;;;;-0.88;100.00;100800.41;5111481;28;20027;-75
2023/12/04 06:57:14;;;;;;;13.38;7.57;;;;;;;-0.88;100.00;100797.78;5111779;28;20421;-74
2023/12/04 06:59:41;;;;;;;21.10;8.48;;;;;;;-0.86;100.00;100795.94;5111524;28;20042;-74
2023/12/04 07:02:06;;;;;;;23.10;8.85;;;;;;;-0.82;100.00;100792.28;5093588;28;20435;-75
2023/12/04 07:04:32;;;;;;;13.70;7.95;;;;;;;-0.80;100.00;100790.44;5110900;28;20142;-74
2023/12/04 07:07:00;;;;;;;15.27;7.95;;;;;;;-0.79;100.00;100784.31;5093309;28;20478;-74
2023/12/04 07:09:27;;;;;;;15.93;7.70;;;;;;;-0.79;100.00;100789.53;5093295;28;20156;-74
2023/12/04 07:11:52;;;;;;;13.90;8.07;;;;;;;-0.76;100.00;100783.31;5093091;28;20055;-74
2023/12/04 07:14:18;;;;;;;14.95;8.02;;;;;;;-0.76;100.00;100780.69;5110932;28;20101;-74
2023/12/04 07:16:44;;;;;;;15.55;6.90;;;;;;;-0.75;100.00;100774.56;5111728;28;20116;-74
2023/12/04 07:19:10;;;;;;;15.63;7.50;;;;;;;-0.71;100.00;100766.50;5111082;28;20442;-74
2023/12/04 07:21:37;;;;;;;14.25;7.60;;;;;;;-0.65;100.00;100767.16;5092903;28;20058;-75
2023/12/04 07:24:02;;;;;;;17.50;7.78;;;;;;;-0.63;100.00;100760.09;5111307;28;20110;-76
2023/12/04 07:26:28;;;;;;;13.68;7.63;;;;;;;-0.59;100.00;100759.88;5110989;28;20086;-75
2023/12/04 07:28:53;;;;;;;16.00;8.18;;;;;;;-0.58;100.00;100753.75;5110963;28;20020;-76
2023/12/04 07:31:19;;;;;;;14.48;7.30;;;;;;;-0.55;100.00;100760.63;5110927;28;20032;-76
2023/12/04 07:33:44;;;;;;;19.27;7.57;;;;;;;-0.53;100.00;100764.00;5076324;28;20035;-76
2023/12/04 07:36:10;;;;;;;14.95;7.43;;;;;;;-0.55;100.00;100763.22;5113246;28;20420;-76
2023/12/04 07:38:35;;;;;;;13.85;7.80;;;;;;;-0.53;100.00;100758.75;5114905;28;20035;-76
2023/12/04 07:41:01;;;;;;;10.82;7.03;;;;;;;-0.51;100.00;100756.91;5096581;28;20119;-74
2023/12/04 07:43:27;;;;;;;12.50;7.07;;;;;;;-0.48;100.00;100762.00;5079765;28;20474;-75
2023/12/04 07:45:54;;;;;;;12.75;7.20;;;;;;;-0.46;100.00;100754.97;5114688;28;20052;-74
2023/12/04 07:48:20;;;;;;;12.45;7.05;;;;;;;-0.43;100.00;100753.97;5114730;28;20028;-76
2023/12/04 07:50:45;;;;;;;11.85;7.15;;;;;;;-0.39;100.00;100745.91;5115306;28;20081;-75
2023/12/04 07:53:11;;;;;;;13.70;7.15;;;;;;;-0.33;100.00;100744.75;5114609;28;20019;-76
2023/12/04 07:55:37;;;;;;;13.85;7.47;;;;;;;-0.31;100.00;100742.06;5114866;28;20103;-74
2023/12/04 07:58:02;;;;;;;12.60;7.15;;;;;;;-0.29;100.00;100742.88;5096140;28;20072;-76
2023/12/04 08:00:28;;;;;;;12.15;6.82;;;;;;;-0.26;100.00;100747.97;5096597;28;20118;-75
2023/12/04 08:02:53;;;;;;;12.05;7.10;;;;;;;-0.24;100.00;100756.56;5097546;28;20346;-75
2023/12/04 08:05:19;;;;;;;13.50;7.10;;;;;;;-0.23;100.00;100759.09;5114257;28;20023;-75
2023/12/04 08:07:44;;;;;;;13.55;7.15;;;;;;;-0.22;100.00;100750.34;5114536;28;20027;-76
2023/12/04 08:10:10;;;;;;;17.05;7.63;;;;;;;-0.19;100.00;100754.59;5095865;28;20046;-75
2023/12/04 08:12:35;;;;;;;12.40;7.40;;;;;;;-0.19;100.00;100744.97;5114261;28;20110;-77
2023/12/04 08:15:01;;;;;;;11.90;7.15;;;;;;;-0.17;100.00;100750.13;5094951;28;20032;-75
2023/12/04 08:17:27;;;;;;;11.80;7.45;;;;;;;-0.16;100.00;100740.50;5113805;28;20092;-75
2023/12/04 08:19:53;;;;;;;12.77;7.35;;;;;;;-0.14;100.00;100734.28;5113472;28;20316;-75
2023/12/04 08:22:19;;;;;;;12.18;6.25;;;;;;;-0.10;100.00;100732.41;5113814;28;20454;-76
2023/12/04 08:24:45;;;;;;;12.98;7.22;;;;;;;-0.06;100.00;100729.56;5114006;28;20077;-76
2023/12/04 08:27:10;;;;;;;12.23;7.47;;;;;;;-0.04;100.00;100730.31;5113486;28;20030;-76
2023/12/04 08:29:36;;;;;;;12.00;6.70;;;;;;;-0.01;100.00;100727.56;5095075;28;20103;-77
2023/12/04 08:32:01;;;;;;;11.40;7.18;;;;;;;0.01;100.00;100724.03;5095236;28;20365;-75
2023/12/04 08:34:26;;;;;;;10.55;6.25;;;;;;;0.02;100.00;100725.72;5114085;28;20024;-78
2023/12/04 08:36:52;;;;;;;11.60;7.45;;;;;;;0.04;100.00;100729.09;5078428;28;20059;-76
2023/12/04 08:39:17;;;;;;;11.35;6.97;;;;;;;0.05;100.00;100718.56;5095354;28;20034;-76
2023/12/04 08:41:47;;;;;;;10.43;6.43;;;;;;;0.07;100.00;100714.09;5113798;28;20058;-75
2023/12/04 08:44:13;;;;;;;11.30;6.53;;;;;;;0.09;100.00;100708.78;5113550;28;20028;-76
2023/12/04 08:46:38;;;;;;;10.50;6.75;;;;;;;0.10;100.00;100700.03;5095241;28;20118;-77
2023/12/04 08:49:04;;;;;;;10.57;6.15;;;;;;;0.13;100.00;100699.88;5112418;28;20130;-78
2023/12/04 08:51:29;;;;;;;8.40;6.05;;;;;;;0.15;100.00;100696.25;5112665;28;20549;-78
2023/12/04 08:53:55;;;;;;;13.07;7.47;;;;;;;0.20;100.00;100695.19;5078053;28;20122;-77
2023/12/04 08:56:20;;;;;;;14.07;7.57;;;;;;;0.21;100.00;100692.50;5113243;28;20051;-78
2023/12/04 08:58:45;;;;;;;11.55;7.15;;;;;;;0.26;100.00;100692.28;5112784;28;20035;-82
2023/12/04 09:01:11;;;;;;;12.20;6.20;;;;;;;0.27;100.00;100692.19;5095093;28;20423;-77
2023/12/04 09:03:36;;;;;;;10.32;6.60;;;;;;;0.28;100.00;100686.03;5112931;28;20119;-76
2023/12/04 09:06:01;;;;;;;10.70;6.00;;;;;;;0.31;100.00;100698.13;5112987;28;20423;-78
2023/12/04 09:08:27;;;;;;;11.85;6.57;;;;;;;0.31;100.00;100688.50;5112640;28;20428;-77
2023/12/04 09:10:52;;;;;;;13.82;6.93;;;;;;;0.34;100.00;100685.75;5112689;28;20023;-77
2023/12/04 09:13:18;;;;;;;11.75;6.95;;;;;;;0.39;100.00;100692.50;5112771;28;20027;-76
2023/12/04 09:15:43;;;;;;;15.10;7.93;;;;;;;0.41;100.00;100690.66;5112473;28;20051;-77
2023/12/04 09:18:09;;;;;;;12.77;6.68;;;;;;;0.42;100.00;100693.19;5094131;28;20023;-76
2023/12/04 09:20:34;;;;;;;10.77;6.40;;;;;;;0.43;100.00;100692.25;5112506;28;20035;-77
2023/12/04 09:22:59;;;;;;;10.63;6.35;;;;;;;0.47;100.00;100692.97;5112578;28;20110;-77
2023/12/04 09:25:25;;;;;;;9.85;6.03;;;;;;;0.47;100.00;100692.97;5112569;28;20038;-78
2023/12/04 09:27:50;;;;;;;12.05;5.75;;;;;;;0.48;100.00;100689.44;5093936;28;20024;-74
2023/12/04 09:30:16;;;;;;;14.05;6.57;;;;;;;0.50;100.00;100692.81;5112531;28;20019;-76
2023/12/04 09:32:41;;;;;;;10.25;6.25;;;;;;;0.53;100.00;100695.25;5112318;28;20023;-78
2023/12/04 09:35:07;;;;;;;9.07;6.13;;;;;;;0.54;100.00;100691.72;5112517;28;20031;-77
2023/12/04 09:37:32;;;;;;;10.23;6.35;;;;;;;0.52;100.00;100689.19;5112516;28;20030;-78
2023/12/04 09:39:58;;;;;;;10.20;6.55;;;;;;;0.54;100.00;100691.72;5093909;28;20027;-79
2023/12/04 09:42:23;;;;;;;11.88;6.53;;;;;;;0.55;100.00;100690.78;5093640;28;20051;-79
2023/12/04 09:44:51;;;;;;;10.35;6.47;;;;;;;0.57;100.00;100682.84;5112174;28;20442;-78
2023/12/04 09:47:21;;;;;;;14.65;6.20;;;;;;;0.58;100.00;100684.56;5112166;28;20423;-75
2023/12/04 09:49:48;;;;;;;11.95;6.53;;;;;;;0.58;100.00;100682.78;5111673;28;20054;-77
2023/12/04 09:52:14;;;;;;;13.90;6.82;;;;;;;0.56;100.00;100671.53;5093727;28;20031;-76
2023/12/04 09:54:41;;;;;;;9.60;6.22;;;;;;;0.58;100.00;100672.28;5093868;28;20431;-76
2023/12/04 09:57:06;;;;;;;10.52;6.45;;;;;;;0.60;100.00;100672.22;5093501;28;20440;-78
2023/12/04 09:59:32;;;;;;;9.27;6.07;;;;;;;0.59;100.00;100665.31;5111821;28;20036;-76
2023/12/04 10:01:58;;;;;;;13.07;6.75;;;;;;;0.59;100.00;100660.06;5093605;28;20455;-76
2023/12/04 10:04:25;;;;;;;10.18;6.43;;;;;;;0.58;100.00;100656.59;5111590;28;20028;-76
2023/12/04 10:06:53;;;;;;;11.90;6.45;;;;;;;0.60;100.00;100657.38;5092965;28;20131;-77
2023/12/04 10:09:19;;;;;;;8.80;6.00;;;;;;;0.59;100.00;100647.81;5111663;28;20114;-76
2023/12/04 10:11:45;;;;;;;10.32;6.03;;;;;;;0.63;100.00;100643.28;5111576;28;20538;-75
2023/12/04 10:14:16;;;;;;;11.68;6.70;;;;;;;0.66;100.00;100643.13;5093059;28;20348;-76
2023/12/04 10:16:42;;;;;;;10.35;5.95;;;;;;;0.68;100.00;100636.84;5112337;28;20047;-76
2023/12/04 10:19:36;;;;;;;9.25;6.43;;;;;;;0.75;100.00;100633.91;5093380;28;20030;-77
2023/12/04 10:22:03;;;;;;;11.38;5.75;;;;;;;0.79;100.00;100631.06;5089334;28;20043;-78
2023/12/04 10:24:37;;;;;;;9.90;6.18;;;;;;;0.91;100.00;100631.31;5111476;28;20055;-75
2023/12/04 10:27:10;;;;;;;15.57;7.88;;;;;;;0.97;100.00;100626.63;5111302;28;20095;-75
2023/12/04 10:29:47;;;;;;;11.43;6.30;;;;;;;1.07;100.00;100623.50;5111589;28;20045;-78
2023/12/04 10:32:12;;;;;;;9.02;5.75;;;;;;;1.18;100.00;100619.38;5093107;28;20416;-77
2023/12/04 10:34:39;;;;;;;9.25;5.35;;;;;;;1.34;100.00;100600.16;5111534;28;20039;-76
2023/12/04 10:37:05;;;;;;;9.02;5.75;;;;;;;1.50;100.00;100598.38;5111707;28;20023;-76
2023/12/04 10:39:31;;;;;;;12.30;6.68;;;;;;;1.64;100.00;100594.94;5111531;28;20087;-75
2023/12/04 10:42:02;;;;;;;9.52;6.70;;;;;;;1.72;100.00;100599.78;5092654;28;20150;-76
2023/12/04 10:44:28;;;;;;;8.07;5.32;;;;;;;1.76;100.00;100588.16;5111313;28;20096;-76
2023/12/04 10:46:57;;;;;;;8.98;6.05;;;;;;;1.89;100.00;100589.13;5093117;28;20056;-77
2023/12/04 10:49:25;;;;;;;9.77;6.03;;;;;;;1.95;100.00;100582.69;5111249;28;20060;-76
2023/12/04 10:51:52;;;;;;;7.47;5.38;;;;;;;2.03;100.00;100579.59;5092717;28;20024;-75
2023/12/04 10:54:18;;;;;;;9.73;6.18;;;;;;;2.04;100.00;100578.69;5111208;28;20035;-76
2023/12/04 10:56:46;;;;;;;8.63;5.93;;;;;;;2.07;100.00;100571.47;5092581;28;20031;-77
2023/12/04 10:59:18;;;;;;;10.55;5.45;;;;;;;2.10;100.00;100568.66;5111549;28;20028;-77
2023/12/04 11:01:46;;;;;;;9.82;6.18;;;;;;;2.14;100.00;100555.38;5111646;28;20063;-76
2023/12/04 11:04:17;;;;;;;8.43;5.47;;;;;;;2.19;100.00;100551.50;5111144;28;20440;-76